This is the latest recevied weather packets stored in our database for station/object W8CEN. If no packets are shown the sender has not sent any weather packets the latest 10 day(s).
| Time | Temp. | Humidity | Pressure | Rain* | Wind** | Luminosity | Snow |
|---|---|---|---|---|---|---|---|
| 1778078574 | 13.89° C | 47% | 990.8 hPa | 0 mm | - | 617 W/m² | - |
| 1778078272 | 14.44° C | 56% | 990.8 hPa | 0 mm | - | 594 W/m² | - |
| 1778077969 | 13.89° C | 55% | 990.6 hPa | 0 mm | - | 463 W/m² | - |
| 1778077667 | 14.44° C | 50% | 990.6 hPa | 0 mm | - | 485 W/m² | - |
| 1778077365 | 14.44° C | 55% | 990.7 hPa | 0 mm | - | 588 W/m² | - |
| 1778077063 | 13.89° C | 59% | 990.7 hPa | 0 mm | - | 595 W/m² | - |
| 1778076761 | 13.33° C | 56% | 990.6 hPa | 0 mm | - | 577 W/m² | - |
| 1778076458 | 13.33° C | 56% | 990.5 hPa | 0 mm | - | 486 W/m² | - |
| 1778076155 | 12.78° C | 60% | 990.7 hPa | 0 mm | - | 468 W/m² | - |
| 1778075852 | 12.22° C | 62% | 990.6 hPa | 0 mm | - | 399 W/m² | - |
| 1778075548 | 12.22° C | 63% | 990.3 hPa | 0 mm | - | 200 W/m² | - |
| 1778075245 | 12.78° C | 57% | 990.6 hPa | 0 mm | - | 289 W/m² | - |
| 1778074941 | 12.22° C | 65% | 990.2 hPa | 0 mm | - | 372 W/m² | - |
| 1778074639 | 12.78° C | 66% | 990.1 hPa | 0 mm | - | 191 W/m² | - |
| 1778074335 | 12.78° C | 68% | 990.1 hPa | 0 mm | - | 200 W/m² | - |
| 1778074032 | 12.78° C | 69% | 990.2 hPa | 0 mm | - | 198 W/m² | - |
| 1778073729 | 11.67° C | 76% | 990 hPa | 0 mm | - | 225 W/m² | - |
| 1778073427 | 11.11° C | 79% | 989.9 hPa | 0 mm | - | 196 W/m² | - |
| 1778073123 | 10.56° C | 79% | 989.8 hPa | 0 mm | - | 197 W/m² | - |
| 1778072820 | 10.56° C | 81% | 989.8 hPa | 0 mm | - | 110 W/m² | - |
| 1778072517 | 10.56° C | 82% | 990 hPa | 0 mm | - | 283 W/m² | - |
| 1778072215 | 10° C | 86% | 989.6 hPa | 0 mm | - | 203 W/m² | - |
| 1778071913 | 9.44° C | 87% | 989.6 hPa | 0 mm | - | 216 W/m² | - |
| 1778071610 | 9.44° C | 87% | 989.5 hPa | 0 mm | - | 102 W/m² | - |
| 1778071308 | 9.44° C | 89% | 989.7 hPa | 0 mm | - | 138 W/m² | - |
* Rain latest hour (hover to see other rain measurements)
** Current wind speed in m/s (hover to see current wind gust speed)